Time;durP1;ratioP1;P1;durP2;ratioP2;P2;SDS_P1;SDS_P2;PMS_P1;PMS_P2;Temp;Humidity;BMP_temperature;BMP_pressure;BME280_temperature;BME280_humidity;BME280_pressure;Samples;Min_cycle;Max_cycle;Signal;HPM_P1;HPM_P2
2022/12/10 00:01:42;;;;;;;88.45;45.67;;;-0.60;99.90;;;;;;5000701;28;20058;-39
2022/12/10 00:04:09;;;;;;;96.53;42.33;;;-0.60;99.90;;;;;;5031171;28;20131;-40
2022/12/10 00:06:36;;;;;;;85.28;44.40;;;-0.60;99.90;;;;;;5031856;28;20053;-37
2022/12/10 00:09:04;;;;;;;85.05;39.53;;;-0.60;99.90;;;;;;5029776;28;20489;-40
2022/12/10 00:11:31;;;;;;;87.60;40.47;;;-0.60;99.90;;;;;;5019974;28;20057;-39
2022/12/10 00:13:58;;;;;;;84.72;38.10;;;-0.60;99.90;;;;;;5024416;28;20160;-40
2022/12/10 00:16:26;;;;;;;91.68;39.70;;;-0.60;99.90;;;;;;5031541;28;20360;-40
2022/12/10 00:18:54;;;;;;;82.20;39.40;;;-0.60;99.90;;;;;;5010885;28;20077;-39
2022/12/10 00:21:22;;;;;;;79.22;36.78;;;-0.60;99.90;;;;;;5028716;28;20136;-40
2022/12/10 00:23:49;;;;;;;86.35;39.03;;;-0.70;99.90;;;;;;5008827;28;20494;-40
2022/12/10 00:26:17;;;;;;;82.40;37.60;;;-0.70;99.90;;;;;;5021959;28;20049;-40
2022/12/10 00:28:43;;;;;;;78.03;37.17;;;-0.70;99.90;;;;;;5017175;28;20053;-40
2022/12/10 00:31:11;;;;;;;78.20;36.92;;;-0.70;99.90;;;;;;5024517;28;20448;-39
2022/12/10 00:33:38;;;;;;;78.22;38.10;;;-0.70;99.90;;;;;;5026391;28;20045;-39
2022/12/10 00:36:09;;;;;;;91.28;41.80;;;-0.80;99.90;;;;;;5021089;28;20096;-40
2022/12/10 00:38:35;;;;;;;75.38;37.22;;;-0.80;99.90;;;;;;5013621;28;20053;-40
2022/12/10 00:41:03;;;;;;;82.93;38.28;;;-0.80;99.90;;;;;;5018438;28;20563;-39
2022/12/10 00:43:30;;;;;;;78.65;38.47;;;-0.80;99.90;;;;;;5011127;28;20045;-38
2022/12/10 00:45:57;;;;;;;81.03;36.38;;;-0.90;99.90;;;;;;5031544;28;20050;-40
2022/12/10 00:48:24;;;;;;;76.80;36.67;;;-0.90;99.90;;;;;;4996431;28;20057;-40
2022/12/10 00:50:58;;;;;;;76.38;37.30;;;-0.90;99.90;;;;;;5009331;28;20060;-40
2022/12/10 00:53:27;;;;;;;70.35;34.63;;;-0.90;99.90;;;;;;5029817;28;20096;-40
2022/12/10 00:55:53;;;;;;;75.38;37.10;;;-1.00;99.90;;;;;;5018649;28;20461;-40
2022/12/10 00:58:21;;;;;;;90.88;41.03;;;-1.00;99.90;;;;;;5029888;28;20049;-39
2022/12/10 01:00:47;;;;;;;88.38;40.58;;;-1.00;99.90;;;;;;5007232;28;20111;-40
2022/12/10 01:03:14;;;;;;;92.63;41.60;;;-1.00;99.90;;;;;;5030705;28;20053;-40
2022/12/10 01:05:41;;;;;;;85.90;39.10;;;-1.00;99.90;;;;;;5031345;28;20497;-40
2022/12/10 01:08:08;;;;;;;88.03;38.53;;;-1.10;99.90;;;;;;5007719;28;20058;-39
2022/12/10 01:10:36;;;;;;;77.38;36.83;;;-1.10;99.90;;;;;;5025775;28;20128;-38
2022/12/10 01:13:03;;;;;;;83.78;38.95;;;-1.10;99.90;;;;;;5013885;28;20054;-40
2022/12/10 01:15:30;;;;;;;81.45;40.15;;;-1.10;99.90;;;;;;5026521;28;20489;-40
2022/12/10 01:17:57;;;;;;;82.50;38.95;;;-1.10;99.90;;;;;;5031636;28;20073;-41
2022/12/10 01:20:24;;;;;;;87.20;41.83;;;-1.20;99.90;;;;;;5027823;28;20452;-40
2022/12/10 01:22:50;;;;;;;84.82;38.70;;;-1.20;99.90;;;;;;5022676;28;20058;-40
2022/12/10 01:25:17;;;;;;;83.60;38.35;;;-1.20;99.90;;;;;;4995971;28;20123;-40
2022/12/10 01:27:46;;;;;;;87.80;39.30;;;-1.20;99.90;;;;;;5022179;28;20451;-39
2022/12/10 01:30:13;;;;;;;91.20;41.95;;;-1.20;99.90;;;;;;5010269;28;20077;-40
2022/12/10 01:32:39;;;;;;;89.35;41.35;;;-1.20;99.90;;;;;;5028414;28;20057;-41
2022/12/10 01:35:07;;;;;;;90.78;40.53;;;-1.30;99.90;;;;;;4995066;28;20116;-39
2022/12/10 01:37:34;;;;;;;82.65;39.33;;;-1.30;99.90;;;;;;4995755;28;20058;-40
2022/12/10 01:40:01;;;;;;;78.40;37.30;;;-1.20;99.90;;;;;;5030993;28;20045;-40
2022/12/10 01:42:27;;;;;;;87.28;40.00;;;-1.30;99.90;;;;;;5027535;28;20049;-40
2022/12/10 01:45:08;;;;;;;89.93;42.40;;;-1.30;99.90;;;;;;5021680;28;20049;-41
2022/12/10 01:47:35;;;;;;;88.60;40.42;;;-1.30;99.90;;;;;;5001779;28;20054;-41
2022/12/10 01:50:01;;;;;;;95.45;42.05;;;-1.30;99.90;;;;;;5031107;28;20075;-40
2022/12/10 01:52:28;;;;;;;92.38;42.30;;;-1.30;99.90;;;;;;5029235;28;20045;-39
2022/12/10 01:54:55;;;;;;;98.50;42.30;;;-1.30;99.90;;;;;;5026897;28;20046;-38
2022/12/10 01:57:23;;;;;;;87.97;41.90;;;-1.30;99.90;;;;;;5026296;28;20068;-39
2022/12/10 01:59:52;;;;;;;100.15;43.17;;;-1.30;99.90;;;;;;5028331;28;20100;-39
2022/12/10 02:02:25;;;;;;;98.80;43.15;;;-1.20;99.90;;;;;;5027128;28;20103;-40
2022/12/10 02:04:57;;;;;;;98.70;42.53;;;-1.40;99.90;;;;;;5001135;28;20057;-40
2022/12/10 02:07:28;;;;;;;102.38;42.88;;;-1.20;99.90;;;;;;5033134;28;20057;-39
2022/12/10 02:09:58;;;;;;;102.90;45.57;;;-1.30;99.90;;;;;;5007279;28;20125;-39
2022/12/10 02:12:27;;;;;;;91.28;42.67;;;-1.30;99.90;;;;;;5021026;28;20053;-39
2022/12/10 02:14:54;;;;;;;100.05;44.70;;;-1.30;99.90;;;;;;5034585;28;20445;-39
2022/12/10 02:17:26;;;;;;;104.38;45.83;;;-1.30;99.90;;;;;;5030155;28;20049;-40
2022/12/10 02:20:02;;;;;;;96.45;43.35;;;-1.40;99.90;;;;;;5032501;28;20442;-40
2022/12/10 02:22:30;;;;;;;103.45;43.75;;;-1.30;99.90;;;;;;5020578;28;20049;-40
2022/12/10 02:24:57;;;;;;;111.47;46.17;;;-1.40;99.90;;;;;;5024413;28;20126;-39
2022/12/10 02:27:26;;;;;;;95.50;43.03;;;-1.40;99.90;;;;;;5027182;28;20453;-41
2022/12/10 02:29:54;;;;;;;92.28;41.75;;;-1.40;99.90;;;;;;5034428;28;20095;-40
2022/12/10 02:32:22;;;;;;;101.47;43.05;;;-1.40;99.90;;;;;;4998041;28;20049;-40
2022/12/10 02:34:51;;;;;;;102.30;44.60;;;-1.40;99.90;;;;;;5020613;28;20046;-40
2022/12/10 02:37:19;;;;;;;91.63;42.75;;;-1.40;99.90;;;;;;5024237;28;20485;-39
2022/12/10 02:39:48;;;;;;;100.55;43.92;;;-1.40;99.90;;;;;;5007864;28;20099;-39
2022/12/10 02:42:14;;;;;;;102.75;44.10;;;-1.50;99.90;;;;;;5009092;28;20100;-40
2022/12/10 02:44:41;;;;;;;103.20;45.15;;;-1.50;99.90;;;;;;5003848;28;20049;-40
2022/12/10 02:47:10;;;;;;;101.60;45.17;;;-1.50;99.90;;;;;;5028310;28;20045;-40
2022/12/10 02:49:36;;;;;;;95.63;43.15;;;-1.50;99.90;;;;;;5024760;28;20081;-39
2022/12/10 02:52:07;;;;;;;106.93;45.17;;;-1.50;99.90;;;;;;5015600;28;20062;-38
2022/12/10 02:54:37;;;;;;;105.95;45.45;;;-1.50;99.90;;;;;;5002745;28;20053;-40
2022/12/10 02:57:08;;;;;;;105.30;44.95;;;-1.50;99.90;;;;;;5028341;28;20115;-39
2022/12/10 02:59:39;;;;;;;105.38;44.67;;;-1.50;99.90;;;;;;5011249;28;20049;-39
2022/12/10 03:02:10;;;;;;;108.95;45.22;;;-1.50;99.90;;;;;;4999401;28;20057;-40
2022/12/10 03:04:40;;;;;;;109.57;46.55;;;-1.50;99.90;;;;;;5028849;28;20085;-39
2022/12/10 03:07:09;;;;;;;102.85;43.30;;;-1.60;99.90;;;;;;5029384;28;20512;-40
2022/12/10 03:09:38;;;;;;;102.60;44.28;;;-1.60;99.90;;;;;;5023630;28;20071;-40
2022/12/10 03:12:09;;;;;;;103.95;44.30;;;-1.60;99.90;;;;;;5014774;28;20410;-40
2022/12/10 03:14:36;;;;;;;108.32;46.05;;;-1.60;99.90;;;;;;4996240;28;20058;-40
2022/12/10 03:17:03;;;;;;;99.82;44.47;;;-1.60;99.90;;;;;;5017718;28;20116;-40
2022/12/10 03:19:34;;;;;;;92.50;42.22;;;-1.60;99.90;;;;;;5033299;28;20115;-41
2022/12/10 03:22:01;;;;;;;102.97;43.67;;;-1.60;99.90;;;;;;5015132;28;20046;-41
2022/12/10 03:24:28;;;;;;;89.30;41.33;;;-1.60;99.90;;;;;;5033039;28;20041;-41
2022/12/10 03:26:55;;;;;;;104.30;45.08;;;-1.70;99.90;;;;;;5016401;28;20045;-40
2022/12/10 03:29:23;;;;;;;90.60;42.17;;;-1.60;99.90;;;;;;5013584;28;20108;-41
2022/12/10 03:31:50;;;;;;;85.47;41.13;;;-1.70;99.90;;;;;;5032770;28;20205;-40
2022/12/10 03:34:16;;;;;;;98.97;44.63;;;-1.70;99.90;;;;;;5025992;28;20485;-41
2022/12/10 03:36:45;;;;;;;103.15;45.70;;;-1.70;99.90;;;;;;5006592;28;20045;-41
2022/12/10 03:39:12;;;;;;;100.38;45.05;;;-1.70;99.90;;;;;;5016184;28;20045;-41
2022/12/10 03:41:39;;;;;;;99.93;43.80;;;-1.70;99.90;;;;;;5006831;28;20735;-41
2022/12/10 03:44:05;;;;;;;99.45;44.50;;;-1.70;99.90;;;;;;4995871;28;20046;-41
2022/12/10 03:46:32;;;;;;;100.18;44.00;;;-1.80;99.90;;;;;;5032704;28;20050;-41
2022/12/10 03:49:00;;;;;;;107.65;46.00;;;-1.80;99.90;;;;;;5031628;28;20111;-40
2022/12/10 03:51:26;;;;;;;100.18;44.47;;;-1.80;99.90;;;;;;5032260;28;20053;-41
2022/12/10 03:53:55;;;;;;;112.32;47.65;;;-1.80;99.90;;;;;;5015078;28;20053;-41
2022/12/10 03:56:22;;;;;;;115.00;47.80;;;-1.80;99.90;;;;;;5012108;28;20119;-41
2022/12/10 03:58:48;;;;;;;100.13;44.42;;;-1.80;99.90;;;;;;5008427;28;20459;-37
2022/12/10 04:01:16;;;;;;;93.75;41.60;;;-1.80;99.90;;;;;;4995897;28;20453;-41
2022/12/10 04:03:43;;;;;;;103.70;42.97;;;-1.80;99.90;;;;;;5029861;28;20053;-40
2022/12/10 04:06:11;;;;;;;91.80;41.92;;;-1.80;99.90;;;;;;5014616;28;20103;-40
2022/12/10 04:08:38;;;;;;;106.20;44.75;;;-1.90;99.90;;;;;;5031687;28;20132;-41
2022/12/10 04:11:06;;;;;;;107.63;44.53;;;-1.90;99.90;;;;;;5023894;28;20448;-40
2022/12/10 04:16:30;;;;;;;96.95;44.20;;;-1.90;99.90;;;;;;5033255;28;20111;-40
2022/12/10 04:18:58;;;;;;;109.82;44.85;;;-1.90;99.90;;;;;;5031655;28;20087;-40
2022/12/10 04:27:00;;;;;;;92.80;41.70;;;-2.00;99.90;;;;;;5001820;28;20074;-40
2022/12/10 04:29:27;;;;;;;110.43;46.00;;;-2.00;99.90;;;;;;5031924;28;20053;-40
2022/12/10 04:31:54;;;;;;;94.18;43.67;;;-2.00;99.90;;;;;;5030715;28;20052;-40
2022/12/10 04:34:21;;;;;;;97.38;43.40;;;-2.00;99.90;;;;;;5031107;28;20444;-40
2022/12/10 04:36:48;;;;;;;108.72;46.53;;;-2.00;99.90;;;;;;5031863;28;20099;-40
2022/12/10 04:39:15;;;;;;;111.45;46.03;;;-2.00;99.90;;;;;;5024487;28;20053;-41
2022/12/10 04:41:42;;;;;;;104.97;46.47;;;-2.00;99.90;;;;;;5024367;28;20072;-40
2022/12/10 04:44:10;;;;;;;101.93;44.17;;;-2.00;99.90;;;;;;5031259;28;20431;-41
2022/12/10 04:46:37;;;;;;;102.15;43.95;;;-2.00;99.90;;;;;;4997733;28;20065;-40
2022/12/10 04:49:04;;;;;;;119.28;45.25;;;-2.00;99.90;;;;;;5014209;28;20383;-41
2022/12/10 04:51:34;;;;;;;92.50;41.17;;;-2.00;99.90;;;;;;5012838;28;20049;-40
2022/12/10 04:54:01;;;;;;;105.40;45.08;;;-2.00;99.90;;;;;;5011300;28;20049;-39
2022/12/10 04:56:28;;;;;;;104.03;43.55;;;-2.10;99.90;;;;;;5003952;28;20099;-40
2022/12/10 04:58:56;;;;;;;102.75;44.25;;;-2.00;99.90;;;;;;5013849;28;20057;-41
2022/12/10 05:01:24;;;;;;;112.28;45.58;;;-2.10;99.90;;;;;;5012112;28;20476;-37
2022/12/10 05:03:51;;;;;;;111.80;46.42;;;-2.10;99.90;;;;;;5027968;28;20456;-41
2022/12/10 05:06:18;;;;;;;99.88;42.88;;;-2.10;99.90;;;;;;5030370;28;20045;-40
2022/12/10 05:08:45;;;;;;;105.90;45.63;;;-2.10;99.90;;;;;;5004896;28;20042;-41
2022/12/10 05:11:13;;;;;;;98.97;44.65;;;-2.10;99.90;;;;;;5005285;28;20093;-41
2022/12/10 05:13:40;;;;;;;90.40;42.00;;;-2.20;99.90;;;;;;5023998;28;20049;-41
2022/12/10 05:16:08;;;;;;;102.38;43.13;;;-2.10;99.90;;;;;;5014819;28;20107;-40
2022/12/10 05:18:36;;;;;;;103.80;44.72;;;-2.20;99.90;;;;;;5013230;28;20108;-40
2022/12/10 05:21:03;;;;;;;104.38;45.20;;;-2.10;99.90;;;;;;5026756;28;20080;-40
2022/12/10 05:23:29;;;;;;;110.68;45.90;;;-2.20;99.90;;;;;;5014037;28;20093;-41
2022/12/10 05:26:00;;;;;;;106.05;46.08;;;-2.20;99.90;;;;;;5015429;28;20512;-40
2022/12/10 05:28:27;;;;;;;111.68;45.85;;;-2.30;99.90;;;;;;5024178;28;20053;-38
2022/12/10 05:30:54;;;;;;;109.18;45.40;;;-2.20;99.90;;;;;;5017951;28;20045;-41
2022/12/10 05:33:20;;;;;;;94.88;43.60;;;-2.30;99.90;;;;;;5030616;28;20559;-40
2022/12/10 05:35:54;;;;;;;97.65;43.47;;;-2.20;99.90;;;;;;5006519;28;20068;-41
2022/12/10 05:38:21;;;;;;;102.43;43.25;;;-2.30;99.90;;;;;;5019969;28;20556;-38
2022/12/10 05:40:48;;;;;;;95.38;44.17;;;-2.30;99.90;;;;;;5029999;28;21266;-39
2022/12/10 05:43:15;;;;;;;97.72;41.67;;;-2.30;99.90;;;;;;5034289;28;20409;-40
2022/12/10 05:45:41;;;;;;;105.40;44.03;;;-2.30;99.90;;;;;;5029086;28;20046;-39
2022/12/10 05:48:09;;;;;;;100.40;43.25;;;-2.30;99.90;;;;;;5028146;28;20508;-39
2022/12/10 05:50:36;;;;;;;101.30;42.95;;;-2.30;99.90;;;;;;5034352;28;20046;-37
2022/12/10 05:53:04;;;;;;;103.55;41.20;;;-2.20;99.90;;;;;;5031114;28;20111;-38
2022/12/10 05:55:32;;;;;;;118.40;46.22;;;-2.30;99.90;;;;;;5030350;28;20383;-39
2022/12/10 05:57:59;;;;;;;105.95;45.35;;;-2.20;99.90;;;;;;5031894;28;20057;-39
2022/12/10 06:00:26;;;;;;;111.00;45.42;;;-2.20;99.90;;;;;;5011509;28;20442;-39
2022/12/10 06:02:53;;;;;;;116.88;48.05;;;-2.20;99.90;;;;;;5030520;28;20429;-39
2022/12/10 06:05:20;;;;;;;114.53;47.63;;;-2.20;99.90;;;;;;5027275;28;20104;-40
2022/12/10 06:07:47;;;;;;;119.60;47.20;;;-2.10;99.90;;;;;;5010776;28;20111;-40
2022/12/10 06:10:15;;;;;;;119.72;47.70;;;-2.10;99.90;;;;;;4999687;28;20123;-39
2022/12/10 06:12:42;;;;;;;123.70;49.13;;;-2.10;99.90;;;;;;5012323;28;20390;-39
2022/12/10 06:15:09;;;;;;;127.90;50.03;;;-2.10;99.90;;;;;;5031732;28;20108;-40
2022/12/10 06:17:37;;;;;;;130.80;50.42;;;-2.00;99.90;;;;;;5021471;28;20053;-40
2022/12/10 06:20:04;;;;;;;121.38;47.65;;;-2.00;99.90;;;;;;5012239;28;20049;-40
2022/12/10 06:22:31;;;;;;;134.30;50.13;;;-2.00;99.90;;;;;;5006525;28;20417;-40
2022/12/10 06:24:57;;;;;;;129.57;50.45;;;-2.00;99.90;;;;;;5012604;28;20115;-37
2022/12/10 06:27:26;;;;;;;140.18;50.42;;;-2.00;99.90;;;;;;5029442;28;20053;-39
2022/12/10 06:29:53;;;;;;;127.38;48.83;;;-2.00;99.90;;;;;;5013478;28;20050;-38
2022/12/10 06:32:20;;;;;;;127.35;49.75;;;-2.00;99.90;;;;;;5010878;28;20419;-38
2022/12/10 06:34:46;;;;;;;143.10;50.85;;;-1.90;99.90;;;;;;5027893;28;20107;-38
2022/12/10 06:37:13;;;;;;;131.43;49.72;;;-1.90;99.90;;;;;;5013619;28;20057;-39
2022/12/10 06:39:40;;;;;;;137.85;50.63;;;-1.90;99.90;;;;;;5033191;28;20100;-38
2022/12/10 06:42:08;;;;;;;140.15;51.00;;;-1.90;99.90;;;;;;5030042;28;20053;-39
2022/12/10 06:44:36;;;;;;;142.07;51.05;;;-1.90;99.90;;;;;;5026639;28;20060;-39
2022/12/10 06:47:03;;;;;;;153.38;53.38;;;-1.80;99.90;;;;;;5028919;28;20099;-40
2022/12/10 06:49:30;;;;;;;141.23;52.30;;;-1.80;99.90;;;;;;5026731;28;20061;-40
2022/12/10 06:51:57;;;;;;;135.00;50.65;;;-1.80;99.90;;;;;;5026534;28;20192;-39
2022/12/10 06:54:23;;;;;;;129.70;51.20;;;-1.80;99.90;;;;;;5033202;28;20072;-40
2022/12/10 06:56:50;;;;;;;127.80;51.03;;;-1.80;99.90;;;;;;5033595;28;20068;-39
2022/12/10 06:59:17;;;;;;;123.85;49.83;;;-1.80;99.90;;;;;;5034522;28;20099;-39
2022/12/10 07:01:45;;;;;;;131.90;50.13;;;-1.70;99.90;;;;;;5033591;28;20053;-38
2022/12/10 07:04:12;;;;;;;129.85;50.53;;;-1.70;99.90;;;;;;5015616;28;20099;-39
2022/12/10 07:06:39;;;;;;;116.90;48.45;;;-1.70;99.90;;;;;;5030455;28;20045;-39
2022/12/10 07:09:06;;;;;;;128.88;49.70;;;-1.70;99.90;;;;;;5015904;28;20053;-39
2022/12/10 07:11:33;;;;;;;129.80;48.30;;;-1.70;99.90;;;;;;5030734;28;20045;-39
2022/12/10 07:14:00;;;;;;;128.35;50.42;;;-1.70;99.90;;;;;;5004203;28;20049;-39
2022/12/10 07:16:27;;;;;;;125.50;48.95;;;-1.70;99.90;;;;;;5016002;28;20405;-40
2022/12/10 07:18:56;;;;;;;124.88;48.17;;;-1.70;99.90;;;;;;5023182;28;20115;-40
2022/12/10 07:21:25;;;;;;;134.80;50.33;;;-1.70;99.90;;;;;;5002287;28;20120;-40
2022/12/10 07:23:53;;;;;;;121.45;46.70;;;-1.70;99.90;;;;;;5002578;28;20489;-39
2022/12/10 07:26:20;;;;;;;122.13;48.25;;;-1.70;99.90;;;;;;5018259;28;20064;-40
2022/12/10 07:28:46;;;;;;;121.95;47.58;;;-1.70;99.90;;;;;;5018422;28;20493;-39
2022/12/10 07:31:13;;;;;;;129.40;48.25;;;-1.70;99.90;;;;;;5015698;28;20563;-38
2022/12/10 07:33:40;;;;;;;127.57;47.67;;;-1.80;99.90;;;;;;5026873;28;20567;-41
2022/12/10 07:36:09;;;;;;;126.90;47.83;;;-1.80;99.90;;;;;;5014756;28;20076;-41
2022/12/10 07:38:36;;;;;;;123.85;48.55;;;-1.80;99.90;;;;;;5016236;28;20045;-38
2022/12/10 07:41:04;;;;;;;137.50;50.10;;;-1.70;99.90;;;;;;5012702;28;20485;-38
2022/12/10 07:43:30;;;;;;;130.35;51.47;;;-1.70;99.90;;;;;;5007815;28;20054;-40
2022/12/10 07:46:03;;;;;;;147.13;53.63;;;-1.70;99.90;;;;;;5021914;28;20045;-40
2022/12/10 07:48:29;;;;;;;132.23;49.17;;;-1.60;99.90;;;;;;5021264;28;20446;-40
2022/12/10 07:50:57;;;;;;;137.38;52.15;;;-1.70;99.90;;;;;;5022681;28;20099;-39
2022/12/10 07:53:25;;;;;;;135.30;49.78;;;-1.70;99.90;;;;;;5009499;28;20081;-39
2022/12/10 07:55:52;;;;;;;132.98;50.65;;;-1.60;99.90;;;;;;5022731;28;20054;-39
2022/12/10 07:58:19;;;;;;;132.40;51.30;;;-1.60;99.90;;;;;;5013945;28;20057;-40
2022/12/10 08:00:46;;;;;;;130.55;50.08;;;-1.60;99.90;;;;;;5001671;28;20062;-39
2022/12/10 08:03:13;;;;;;;140.25;53.40;;;-1.60;99.90;;;;;;5022350;28;20058;-38
2022/12/10 08:05:39;;;;;;;148.80;52.30;;;-1.60;99.90;;;;;;5027774;28;20091;-39
2022/12/10 08:08:06;;;;;;;134.63;51.20;;;-1.60;99.90;;;;;;5018717;28;20046;-40
2022/12/10 08:10:35;;;;;;;137.15;50.88;;;-1.50;99.90;;;;;;5023797;28;20057;-40
2022/12/10 08:13:02;;;;;;;129.70;49.25;;;-1.60;99.90;;;;;;5003337;28;20046;-41
2022/12/10 08:15:29;;;;;;;131.05;51.03;;;-1.50;99.90;;;;;;5021287;28;20441;-40
2022/12/10 08:17:56;;;;;;;135.63;51.67;;;-1.50;99.90;;;;;;5014437;28;20053;-38
2022/12/10 08:20:23;;;;;;;136.70;52.42;;;-1.50;99.90;;;;;;5026207;28;20064;-40
2022/12/10 08:22:49;;;;;;;123.93;48.53;;;-1.50;99.90;;;;;;5006726;28;20187;-39
2022/12/10 08:25:16;;;;;;;132.10;51.65;;;-1.50;99.90;;;;;;5004521;28;20050;-39
2022/12/10 08:27:45;;;;;;;144.00;53.33;;;-1.40;99.90;;;;;;5021477;28;20058;-38
2022/12/10 08:30:12;;;;;;;134.43;52.70;;;-1.50;99.90;;;;;;5028292;28;20053;-40
2022/12/10 08:32:39;;;;;;;131.57;50.58;;;-1.50;99.90;;;;;;5030787;28;20115;-37
2022/12/10 08:35:07;;;;;;;133.70;51.38;;;-1.40;99.90;;;;;;5023305;28;20041;-40
2022/12/10 08:37:33;;;;;;;136.30;52.53;;;-1.50;99.90;;;;;;4995909;28;20383;-40
2022/12/10 08:40:00;;;;;;;137.27;55.65;;;-1.40;99.90;;;;;;4998258;28;20103;-40
2022/12/10 08:42:27;;;;;;;144.50;57.92;;;-1.40;99.90;;;;;;5003318;28;20052;-40
2022/12/10 08:44:55;;;;;;;131.73;52.13;;;-1.40;99.90;;;;;;5023721;28;20478;-39
2022/12/10 08:47:22;;;;;;;138.73;53.42;;;-1.40;99.90;;;;;;5016727;28;20556;-40
2022/12/10 08:49:49;;;;;;;131.35;52.92;;;-1.30;99.90;;;;;;5028101;28;20100;-39
2022/12/10 08:52:16;;;;;;;133.73;51.90;;;-1.40;99.90;;;;;;5017122;28;20053;-40
2022/12/10 08:54:42;;;;;;;130.20;53.47;;;-1.30;99.90;;;;;;5022515;28;20132;-38
2022/12/10 08:57:09;;;;;;;134.85;53.38;;;-1.30;99.90;;;;;;5021195;28;20490;-39
2022/12/10 08:59:36;;;;;;;131.77;51.90;;;-1.30;99.90;;;;;;5023718;28;20053;-40
2022/12/10 09:02:04;;;;;;;130.82;51.55;;;-1.30;99.90;;;;;;5029665;28;20119;-39
2022/12/10 09:04:31;;;;;;;136.25;50.95;;;-1.20;99.90;;;;;;5004441;28;20053;-40
2022/12/10 09:06:58;;;;;;;142.05;64.57;;;-1.20;99.90;;;;;;5022847;28;20050;-39
2022/12/10 09:09:25;;;;;;;130.77;52.78;;;-1.20;99.90;;;;;;5016244;28;20054;-39
2022/12/10 09:11:52;;;;;;;131.82;56.88;;;-1.20;99.90;;;;;;5003999;28;20041;-39
2022/12/10 09:14:18;;;;;;;136.50;54.33;;;-1.20;99.90;;;;;;5027287;28;20045;-40
2022/12/10 09:16:45;;;;;;;117.95;50.42;;;-1.20;99.90;;;;;;5025542;28;20045;-40
2022/12/10 09:19:13;;;;;;;126.28;49.38;;;-1.10;99.90;;;;;;5033132;28;20045;-39
2022/12/10 09:21:40;;;;;;;116.82;48.05;;;-1.20;99.90;;;;;;5034557;28;20057;-41
2022/12/10 09:24:08;;;;;;;135.27;53.03;;;-1.10;99.90;;;;;;5033730;28;20049;-40
2022/12/10 09:26:34;;;;;;;129.68;50.63;;;-1.10;99.90;;;;;;5032493;28;20046;-40
2022/12/10 09:29:01;;;;;;;132.57;52.40;;;-1.10;99.90;;;;;;5032406;28;20068;-39
2022/12/10 09:31:28;;;;;;;125.85;49.83;;;-1.10;99.90;;;;;;5029019;28;20113;-40
2022/12/10 09:33:55;;;;;;;134.02;57.25;;;-1.10;99.90;;;;;;5027302;28;20050;-40
2022/12/10 09:36:23;;;;;;;119.47;49.30;;;-1.10;99.90;;;;;;5027523;28;20100;-43
2022/12/10 09:38:51;;;;;;;121.97;48.63;;;-1.00;99.90;;;;;;5016420;28;20061;-46
2022/12/10 09:41:50;;;;;;;126.38;49.55;;;-1.00;99.90;;;;;;5004830;28;20062;-43
2022/12/10 09:44:22;;;;;;;122.78;49.08;;;-1.00;99.90;;;;;;5009005;28;20053;-42
2022/12/10 09:46:51;;;;;;;131.77;53.20;;;-1.00;99.90;;;;;;5018809;28;20104;-44
2022/12/10 09:49:22;;;;;;;130.50;50.50;;;-0.90;99.90;;;;;;5022949;28;20057;-41
2022/12/10 09:51:50;;;;;;;126.67;55.70;;;-0.80;99.90;;;;;;5017577;28;20465;-41
2022/12/10 09:54:20;;;;;;;120.72;49.80;;;-0.80;99.90;;;;;;5021595;28;20452;-44
2022/12/10 09:56:46;;;;;;;124.22;50.58;;;-0.80;99.90;;;;;;5027991;28;20049;-46
2022/12/10 09:59:16;;;;;;;120.97;47.63;;;-0.80;99.90;;;;;;5012250;28;20544;-41
2022/12/10 10:01:43;;;;;;;105.40;44.20;;;-0.70;99.90;;;;;;5014598;28;20045;-39
2022/12/10 10:04:10;;;;;;;128.35;48.97;;;-0.80;99.90;;;;;;5016894;28;20045;-47
2022/12/10 10:06:37;;;;;;;125.18;48.25;;;-0.70;99.90;;;;;;5030132;28;20190;-44
2022/12/10 10:09:05;;;;;;;120.15;48.28;;;-0.70;99.90;;;;;;5031540;28;20103;-41
2022/12/10 10:11:33;;;;;;;123.72;47.15;;;-0.70;99.90;;;;;;5029975;28;20053;-43
2022/12/10 10:14:02;;;;;;;122.88;48.17;;;-0.60;99.90;;;;;;5033008;28;20095;-42
2022/12/10 10:16:31;;;;;;;126.55;48.08;;;-0.70;99.90;;;;;;5034341;28;20057;-46
2022/12/10 10:18:59;;;;;;;134.25;51.53;;;-0.70;99.90;;;;;;5029411;28;20046;-44
2022/12/10 10:21:28;;;;;;;124.15;49.42;;;-0.60;99.90;;;;;;5007415;28;20428;-45
2022/12/10 10:23:56;;;;;;;138.10;51.33;;;-0.70;99.90;;;;;;5014564;28;20057;-44
2022/12/10 10:26:26;;;;;;;128.05;48.97;;;-0.60;99.90;;;;;;5025798;28;20057;-41
2022/12/10 10:28:54;;;;;;;120.28;48.20;;;-0.60;99.90;;;;;;5027120;28;20528;-44
2022/12/10 10:31:22;;;;;;;123.10;45.55;;;-0.60;99.90;;;;;;5027297;28;20104;-44
2022/12/10 10:33:50;;;;;;;122.90;48.50;;;-0.50;99.90;;;;;;5028488;28;20057;-45
2022/12/10 10:36:17;;;;;;;134.05;51.25;;;-0.50;99.90;;;;;;5016337;28;20505;-45
2022/12/10 10:38:48;;;;;;;144.13;57.00;;;-0.50;99.90;;;;;;5028613;28;20393;-44
2022/12/10 10:41:15;;;;;;;114.20;44.92;;;-0.50;99.90;;;;;;5031344;28;20057;-43
2022/12/10 10:43:45;;;;;;;116.15;47.10;;;-0.40;99.90;;;;;;5030598;28;20460;-45
2022/12/10 10:46:12;;;;;;;105.13;43.17;;;-0.50;99.90;;;;;;5031522;28;20103;-47
2022/12/10 10:48:39;;;;;;;117.75;46.55;;;-0.40;99.90;;;;;;5032762;28;20047;-45
2022/12/10 10:51:08;;;;;;;104.07;42.50;;;-0.40;99.90;;;;;;5010903;28;20441;-42
2022/12/10 10:53:42;;;;;;;116.60;45.42;;;-0.30;99.90;;;;;;5014524;28;20061;-44
2022/12/10 10:56:11;;;;;;;125.38;51.45;;;-0.30;99.90;;;;;;5023966;28;20145;-42
2022/12/10 10:58:46;;;;;;;122.85;51.78;;;-0.30;99.90;;;;;;5029977;28;20472;-37
2022/12/10 11:01:13;;;;;;;118.65;51.65;;;-0.30;99.90;;;;;;5006971;28;20054;-47
2022/12/10 11:03:47;;;;;;;116.25;48.08;;;-0.30;99.90;;;;;;5033571;28;20072;-43
2022/12/10 11:06:13;;;;;;;108.55;46.42;;;-0.30;99.90;;;;;;5005869;28;20058;-39
2022/12/10 11:08:40;;;;;;;106.15;44.10;;;-0.40;99.90;;;;;;5030854;28;20111;-44
2022/12/10 11:11:12;;;;;;;94.97;39.00;;;-0.30;99.90;;;;;;5029167;28;20517;-42
2022/12/10 11:13:39;;;;;;;107.95;41.38;;;-0.30;99.90;;;;;;5028976;28;20095;-45
2022/12/10 11:16:13;;;;;;;101.13;39.97;;;-0.30;99.90;;;;;;5009598;28;20058;-44
2022/12/10 11:18:42;;;;;;;107.53;39.45;;;-0.20;99.90;;;;;;5031388;28;20050;-45
2022/12/10 11:21:21;;;;;;;103.10;41.80;;;-0.30;99.90;;;;;;5024145;28;20107;-42
2022/12/10 11:23:51;;;;;;;102.05;41.83;;;-0.20;99.90;;;;;;5010322;28;20486;-42
2022/12/10 11:26:40;;;;;;;107.43;43.42;;;-0.20;99.90;;;;;;5014053;28;20050;-43
2022/12/10 11:29:13;;;;;;;114.15;44.78;;;-0.20;99.90;;;;;;5024893;28;20049;-45
2022/12/10 11:31:51;;;;;;;108.03;44.35;;;-0.10;99.90;;;;;;5018954;28;20135;-39
2022/12/10 11:34:20;;;;;;;93.47;41.05;;;-0.20;99.90;;;;;;5026003;28;20060;-43
2022/12/10 11:36:53;;;;;;;105.18;41.47;;;-0.10;99.90;;;;;;5022605;28;20099;-44
2022/12/10 11:39:29;;;;;;;95.97;41.05;;;-0.10;99.90;;;;;;5015652;28;20104;-44
2022/12/10 11:41:58;;;;;;;105.25;42.15;;;-0.10;99.90;;;;;;5024796;28;20045;-41
2022/12/10 11:44:28;;;;;;;111.35;42.92;;;-0.10;99.90;;;;;;5021439;28;20449;-42
2022/12/10 11:47:10;;;;;;;113.50;44.45;;;0.00;99.90;;;;;;5028500;28;20096;-42
2022/12/10 11:49:38;;;;;;;;;;;0.00;99.90;;;;;;5029936;28;20053;-43
2022/12/10 11:52:09;;;;;;;103.93;44.28;;;0.10;99.90;;;;;;5020396;28;20067;-41
2022/12/10 11:54:51;;;;;;;95.70;43.22;;;0.10;99.90;;;;;;5007172;28;20103;-41
2022/12/10 11:57:29;;;;;;;101.10;39.53;;;0.10;99.90;;;;;;5118509;27;20399;-40
2022/12/10 11:59:59;;;;;;;95.88;39.53;;;0.10;99.90;;;;;;5098047;28;20100;-40
2022/12/10 12:02:47;;;;;;;97.70;41.13;;;0.20;99.90;;;;;;5107888;28;20101;-39
2022/12/10 12:05:20;;;;;;;93.30;38.83;;;0.20;99.90;;;;;;5111388;27;20047;-40
2022/12/10 12:07:50;;;;;;;97.47;41.08;;;0.20;99.90;;;;;;5096376;28;20499;-42
2022/12/10 12:10:35;;;;;;;96.63;39.08;;;0.20;99.90;;;;;;5094963;28;20191;-39
2022/12/10 12:13:08;;;;;;;103.55;41.63;;;0.30;99.90;;;;;;5110253;27;20632;-47
2022/12/10 12:15:37;;;;;;;105.20;41.08;;;0.20;99.90;;;;;;5118245;28;20048;-45
2022/12/10 12:18:06;;;;;;;106.68;42.08;;;0.20;99.90;;;;;;5092523;28;20525;-47
2022/12/10 12:20:35;;;;;;;112.55;42.55;;;0.20;99.90;;;;;;5117172;27;20403;-47
2022/12/10 12:23:06;;;;;;;114.82;41.67;;;0.10;99.90;;;;;;5093661;28;20554;-46
2022/12/10 12:25:35;;;;;;;110.57;42.88;;;0.10;99.90;;;;;;5116686;27;20096;-47
2022/12/10 12:28:06;;;;;;;117.47;45.42;;;0.10;99.90;;;;;;5094731;27;20048;-42
2022/12/10 12:30:33;;;;;;;131.60;48.70;;;0.10;99.90;;;;;;5110586;27;20065;-44
2022/12/10 12:33:02;;;;;;;116.45;41.58;;;0.10;99.90;;;;;;5109448;27;20109;-41
2022/12/10 12:35:34;;;;;;;118.55;45.55;;;0.20;99.90;;;;;;5114329;27;20480;-38